sensor_id;sensor_type;location;lat;lon;timestamp;pressure;altitude;pressure_sealevel;temperature;humidity
52735;BME280;38631;47.572;10.704;2023-02-12T00:01:20;94230.41;;;-0.90;86.59
52735;BME280;38631;47.572;10.704;2023-02-12T00:03:46;94218.94;;;-0.89;86.98
52735;BME280;38631;47.572;10.704;2023-02-12T00:06:11;94210.75;;;-0.85;87.04
52735;BME280;38631;47.572;10.704;2023-02-12T00:08:37;94204.28;;;-0.96;87.25
52735;BME280;38631;47.572;10.704;2023-02-12T00:11:23;94201.06;;;-0.98;87.25
52735;BME280;38631;47.572;10.704;2023-02-12T00:13:49;94203.88;;;-0.93;87.38
52735;BME280;38631;47.572;10.704;2023-02-12T00:16:18;94212.03;;;-0.75;87.02
52735;BME280;38631;47.572;10.704;2023-02-12T00:18:43;94209.56;;;-0.83;86.88
52735;BME280;38631;47.572;10.704;2023-02-12T00:21:09;94203.94;;;-0.87;87.03
52735;BME280;38631;47.572;10.704;2023-02-12T00:23:35;94214.91;;;-0.98;87.08
52735;BME280;38631;47.572;10.704;2023-02-12T00:26:06;94223.47;;;-1.04;87.32
52735;BME280;38631;47.572;10.704;2023-02-12T00:28:31;94236.22;;;-1.16;87.25
52735;BME280;38631;47.572;10.704;2023-02-12T00:30:57;94238.31;;;-1.04;86.64
52735;BME280;38631;47.572;10.704;2023-02-12T00:33:22;94242.63;;;-0.90;86.82
52735;BME280;38631;47.572;10.704;2023-02-12T00:35:55;94245.78;;;-1.29;87.37
52735;BME280;38631;47.572;10.704;2023-02-12T00:38:20;94236.69;;;-1.62;89.13
52735;BME280;38631;47.572;10.704;2023-02-12T00:40:45;94231.41;;;-1.47;89.00
52735;BME280;38631;47.572;10.704;2023-02-12T00:43:11;94237.00;;;-1.22;88.32
52735;BME280;38631;47.572;10.704;2023-02-12T00:45:36;94236.44;;;-1.17;88.74
52735;BME280;38631;47.572;10.704;2023-02-12T00:48:02;94238.50;;;-1.06;88.11
52735;BME280;38631;47.572;10.704;2023-02-12T00:50:28;94240.13;;;-1.05;87.98
52735;BME280;38631;47.572;10.704;2023-02-12T00:52:54;94244.84;;;-0.87;87.54
52735;BME280;38631;47.572;10.704;2023-02-12T00:55:20;94244.00;;;-0.94;88.54
52735;BME280;38631;47.572;10.704;2023-02-12T00:57:45;94242.41;;;-0.95;88.72
52735;BME280;38631;47.572;10.704;2023-02-12T01:00:12;94246.78;;;-0.96;88.25
52735;BME280;38631;47.572;10.704;2023-02-12T01:02:37;94249.59;;;-0.97;88.49
52735;BME280;38631;47.572;10.704;2023-02-12T01:05:03;94256.63;;;-0.98;88.74
52735;BME280;38631;47.572;10.704;2023-02-12T01:07:28;94251.31;;;-1.11;88.56
52735;BME280;38631;47.572;10.704;2023-02-12T01:09:54;94246.00;;;-0.96;89.03
52735;BME280;38631;47.572;10.704;2023-02-12T01:12:19;94249.09;;;-0.79;88.99
52735;BME280;38631;47.572;10.704;2023-02-12T01:14:44;94250.06;;;-0.87;88.76
52735;BME280;38631;47.572;10.704;2023-02-12T01:17:10;94252.84;;;-0.95;89.82
52735;BME280;38631;47.572;10.704;2023-02-12T01:19:35;94248.91;;;-0.78;89.46
52735;BME280;38631;47.572;10.704;2023-02-12T01:22:00;94250.19;;;-0.67;89.80
52735;BME280;38631;47.572;10.704;2023-02-12T01:24:26;94245.13;;;-0.69;88.63
52735;BME280;38631;47.572;10.704;2023-02-12T01:26:51;94247.63;;;-0.54;88.33
52735;BME280;38631;47.572;10.704;2023-02-12T01:29:17;94242.44;;;-0.47;87.94
52735;BME280;38631;47.572;10.704;2023-02-12T01:31:42;94230.50;;;-0.63;87.75
52735;BME280;38631;47.572;10.704;2023-02-12T01:34:09;94235.38;;;-0.53;88.06
52735;BME280;38631;47.572;10.704;2023-02-12T01:36:35;94235.94;;;-0.58;88.71
52735;BME280;38631;47.572;10.704;2023-02-12T01:39:01;94244.16;;;-0.61;88.73
52735;BME280;38631;47.572;10.704;2023-02-12T01:41:30;94248.47;;;-0.47;87.88
52735;BME280;38631;47.572;10.704;2023-02-12T01:44:10;94243.41;;;-0.48;88.20
52735;BME280;38631;47.572;10.704;2023-02-12T01:46:35;94245.06;;;-0.47;87.65
52735;BME280;38631;47.572;10.704;2023-02-12T01:49:02;94238.25;;;-0.41;87.34
52735;BME280;38631;47.572;10.704;2023-02-12T01:51:28;94236.66;;;-0.42;88.18
52735;BME280;38631;47.572;10.704;2023-02-12T01:53:55;94243.47;;;-0.41;87.96
52735;BME280;38631;47.572;10.704;2023-02-12T01:56:24;94234.84;;;-0.35;87.29
52735;BME280;38631;47.572;10.704;2023-02-12T01:58:51;94235.44;;;-0.40;87.20
52735;BME280;38631;47.572;10.704;2023-02-12T02:01:21;94236.38;;;-0.54;87.76
52735;BME280;38631;47.572;10.704;2023-02-12T02:03:51;94231.94;;;-0.60;87.83
52735;BME280;38631;47.572;10.704;2023-02-12T02:06:27;94230.91;;;-0.73;88.51
52735;BME280;38631;47.572;10.704;2023-02-12T02:08:54;94242.53;;;-0.69;88.36
52735;BME280;38631;47.572;10.704;2023-02-12T02:11:20;94245.41;;;-0.57;88.24
52735;BME280;38631;47.572;10.704;2023-02-12T02:14:04;94238.56;;;-0.64;87.46
52735;BME280;38631;47.572;10.704;2023-02-12T02:28:00;94238.00;;;-0.95;90.34
52735;BME280;38631;47.572;10.704;2023-02-12T02:30:59;94224.66;;;-0.72;90.28
52735;BME280;38631;47.572;10.704;2023-02-12T02:33:38;94222.13;;;-0.58;89.88
52735;BME280;38631;47.572;10.704;2023-02-12T02:36:14;94222.16;;;-0.52;89.57
52735;BME280;38631;47.572;10.704;2023-02-12T02:38:50;94228.50;;;-0.68;89.58
52735;BME280;38631;47.572;10.704;2023-02-12T02:41:39;94226.34;;;-0.57;89.53
52735;BME280;38631;47.572;10.704;2023-02-12T02:44:14;94223.44;;;-0.76;90.03
52735;BME280;38631;47.572;10.704;2023-02-12T02:46:46;94218.25;;;-0.69;90.01
52735;BME280;38631;47.572;10.704;2023-02-12T02:49:20;94225.69;;;-0.66;89.28
52735;BME280;38631;47.572;10.704;2023-02-12T02:51:52;94226.34;;;-0.51;89.77
52735;BME280;38631;47.572;10.704;2023-02-12T02:54:41;94221.13;;;-0.51;89.38
52735;BME280;38631;47.572;10.704;2023-02-12T02:57:14;94228.59;;;-0.48;88.83
52735;BME280;38631;47.572;10.704;2023-02-12T02:59:46;94217.34;;;-0.48;88.13
52735;BME280;38631;47.572;10.704;2023-02-12T03:02:20;94209.34;;;-0.40;88.23
52735;BME280;38631;47.572;10.704;2023-02-12T03:04:52;94209.31;;;-0.47;88.66
52735;BME280;38631;47.572;10.704;2023-02-12T03:07:27;94210.09;;;-0.53;89.57
52735;BME280;38631;47.572;10.704;2023-02-12T03:09:59;94203.44;;;-0.55;89.57
52735;BME280;38631;47.572;10.704;2023-02-12T03:12:40;94195.03;;;-0.51;88.90
52735;BME280;38631;47.572;10.704;2023-02-12T03:15:13;94193.69;;;-0.40;89.15
52735;BME280;38631;47.572;10.704;2023-02-12T03:17:44;94190.88;;;-0.45;89.06
52735;BME280;38631;47.572;10.704;2023-02-12T03:20:17;94189.03;;;-0.51;89.35
52735;BME280;38631;47.572;10.704;2023-02-12T03:23:00;94204.13;;;-0.40;89.49
52735;BME280;38631;47.572;10.704;2023-02-12T03:25:38;94197.09;;;-0.33;88.95
52735;BME280;38631;47.572;10.704;2023-02-12T03:28:13;94195.25;;;-0.46;89.39
52735;BME280;38631;47.572;10.704;2023-02-12T03:36:32;94195.28;;;-0.39;88.13
52735;BME280;38631;47.572;10.704;2023-02-12T03:39:29;94194.09;;;-0.36;88.42
52735;BME280;38631;47.572;10.704;2023-02-12T03:47:44;94213.22;;;-0.71;90.16
52735;BME280;38631;47.572;10.704;2023-02-12T03:50:18;94218.13;;;-0.54;88.12
52735;BME280;38631;47.572;10.704;2023-02-12T03:52:45;94225.72;;;-0.59;87.46
52735;BME280;38631;47.572;10.704;2023-02-12T03:55:13;94223.78;;;-0.85;88.27
52735;BME280;38631;47.572;10.704;2023-02-12T03:57:45;94227.91;;;-0.70;88.69
52735;BME280;38631;47.572;10.704;2023-02-12T04:00:16;94230.06;;;-0.73;89.29
52735;BME280;38631;47.572;10.704;2023-02-12T04:02:42;94232.66;;;-0.80;89.61
52735;BME280;38631;47.572;10.704;2023-02-12T04:05:15;94244.28;;;-0.76;90.04
52735;BME280;38631;47.572;10.704;2023-02-12T04:07:41;94246.72;;;-0.74;89.69
52735;BME280;38631;47.572;10.704;2023-02-12T04:10:07;94249.31;;;-0.74;89.19
52735;BME280;38631;47.572;10.704;2023-02-12T04:15:40;94253.00;;;-0.97;90.16
52735;BME280;38631;47.572;10.704;2023-02-12T04:18:20;94258.91;;;-0.81;89.42
52735;BME280;38631;47.572;10.704;2023-02-12T04:20:53;94266.91;;;-0.83;89.52
52735;BME280;38631;47.572;10.704;2023-02-12T04:23:46;94270.63;;;-0.99;89.83
52735;BME280;38631;47.572;10.704;2023-02-12T04:29:02;94285.00;;;-0.81;89.94
52735;BME280;38631;47.572;10.704;2023-02-12T04:31:35;94293.72;;;-0.96;89.73
52735;BME280;38631;47.572;10.704;2023-02-12T04:36:49;94284.13;;;-0.89;90.55
52735;BME280;38631;47.572;10.704;2023-02-12T04:39:21;94275.59;;;-0.76;90.03
52735;BME280;38631;47.572;10.704;2023-02-12T04:41:47;94281.34;;;-0.87;89.63
52735;BME280;38631;47.572;10.704;2023-02-12T04:44:15;94272.38;;;-1.06;90.52
52735;BME280;38631;47.572;10.704;2023-02-12T04:46:41;94273.69;;;-0.95;90.78
52735;BME280;38631;47.572;10.704;2023-02-12T04:49:12;94264.69;;;-0.93;90.20
52735;BME280;38631;47.572;10.704;2023-02-12T04:51:38;94258.16;;;-1.03;90.81
52735;BME280;38631;47.572;10.704;2023-02-12T04:54:03;94259.75;;;-1.09;90.88
52735;BME280;38631;47.572;10.704;2023-02-12T04:56:28;94264.66;;;-1.21;91.44
52735;BME280;38631;47.572;10.704;2023-02-12T04:58:54;94257.13;;;-1.09;90.98
52735;BME280;38631;47.572;10.704;2023-02-12T05:01:22;94267.97;;;-1.34;91.05
52735;BME280;38631;47.572;10.704;2023-02-12T05:03:47;94268.03;;;-1.27;91.59
52735;BME280;38631;47.572;10.704;2023-02-12T05:06:12;94274.97;;;-1.13;91.38
52735;BME280;38631;47.572;10.704;2023-02-12T05:08:38;94287.00;;;-1.12;91.82
52735;BME280;38631;47.572;10.704;2023-02-12T05:11:05;94279.34;;;-1.41;92.60
52735;BME280;38631;47.572;10.704;2023-02-12T05:13:31;94285.09;;;-1.24;92.20
52735;BME280;38631;47.572;10.704;2023-02-12T05:15:56;94283.13;;;-1.22;92.32
52735;BME280;38631;47.572;10.704;2023-02-12T05:18:22;94289.63;;;-1.33;91.94
52735;BME280;38631;47.572;10.704;2023-02-12T05:20:54;94281.16;;;-1.42;91.71
52735;BME280;38631;47.572;10.704;2023-02-12T05:23:20;94274.50;;;-1.44;91.77
52735;BME280;38631;47.572;10.704;2023-02-12T05:25:46;94275.41;;;-1.31;91.08
52735;BME280;38631;47.572;10.704;2023-02-12T05:28:11;94270.97;;;-1.37;91.70
52735;BME280;38631;47.572;10.704;2023-02-12T05:30:36;94268.78;;;-1.33;91.56
52735;BME280;38631;47.572;10.704;2023-02-12T05:33:02;94258.81;;;-1.29;91.35
52735;BME280;38631;47.572;10.704;2023-02-12T05:35:27;94254.91;;;-1.40;91.55
52735;BME280;38631;47.572;10.704;2023-02-12T05:37:52;94265.59;;;-1.28;92.32
52735;BME280;38631;47.572;10.704;2023-02-12T05:40:18;94267.09;;;-1.19;91.55
52735;BME280;38631;47.572;10.704;2023-02-12T05:42:43;94262.44;;;-1.24;91.20
52735;BME280;38631;47.572;10.704;2023-02-12T05:45:09;94269.16;;;-1.36;91.27
52735;BME280;38631;47.572;10.704;2023-02-12T05:47:34;94265.06;;;-1.24;91.11
52735;BME280;38631;47.572;10.704;2023-02-12T05:49:59;94265.69;;;-1.43;91.21
52735;BME280;38631;47.572;10.704;2023-02-12T05:52:25;94274.13;;;-1.41;91.19
52735;BME280;38631;47.572;10.704;2023-02-12T05:54:50;94264.97;;;-1.37;90.76
52735;BME280;38631;47.572;10.704;2023-02-12T05:57:15;94264.78;;;-2.00;93.33
52735;BME280;38631;47.572;10.704;2023-02-12T05:59:41;94271.75;;;-2.01;93.32
52735;BME280;38631;47.572;10.704;2023-02-12T06:02:06;94271.63;;;-2.14;93.53
52735;BME280;38631;47.572;10.704;2023-02-12T06:04:31;94277.72;;;-2.07;94.20
52735;BME280;38631;47.572;10.704;2023-02-12T06:06:58;94263.78;;;-2.21;94.41
52735;BME280;38631;47.572;10.704;2023-02-12T06:09:24;94269.38;;;-1.81;93.62
52735;BME280;38631;47.572;10.704;2023-02-12T06:11:49;94272.22;;;-1.76;92.19
52735;BME280;38631;47.572;10.704;2023-02-12T06:14:17;94261.75;;;-1.82;91.96
52735;BME280;38631;47.572;10.704;2023-02-12T06:16:44;94269.44;;;-1.96;92.41
52735;BME280;38631;47.572;10.704;2023-02-12T06:19:10;94268.06;;;-1.91;92.03
52735;BME280;38631;47.572;10.704;2023-02-12T06:21:36;94270.16;;;-2.02;92.29
52735;BME280;38631;47.572;10.704;2023-02-12T06:24:01;94274.16;;;-1.84;92.31
52735;BME280;38631;47.572;10.704;2023-02-12T06:26:27;94265.03;;;-1.95;91.83
52735;BME280;38631;47.572;10.704;2023-02-12T06:28:52;94267.19;;;-1.99;92.63
52735;BME280;38631;47.572;10.704;2023-02-12T06:31:20;94272.72;;;-1.87;91.88
52735;BME280;38631;47.572;10.704;2023-02-12T06:33:47;94275.00;;;-1.99;91.95
52735;BME280;38631;47.572;10.704;2023-02-12T06:36:13;94275.00;;;-1.99;92.12
52735;BME280;38631;47.572;10.704;2023-02-12T06:38:38;94272.47;;;-1.92;91.83
52735;BME280;38631;47.572;10.704;2023-02-12T06:41:04;94271.53;;;-1.84;91.99
52735;BME280;38631;47.572;10.704;2023-02-12T06:43:29;94270.19;;;-1.80;91.33
52735;BME280;38631;47.572;10.704;2023-02-12T06:45:55;94265.22;;;-1.75;90.83
52735;BME280;38631;47.572;10.704;2023-02-12T06:48:20;94265.63;;;-2.14;92.74
52735;BME280;38631;47.572;10.704;2023-02-12T06:50:46;94257.50;;;-2.41;94.09
52735;BME280;38631;47.572;10.704;2023-02-12T06:53:11;94264.28;;;-2.10;92.72
52735;BME280;38631;47.572;10.704;2023-02-12T06:55:36;94259.53;;;-2.22;92.82
52735;BME280;38631;47.572;10.704;2023-02-12T06:58:02;94267.81;;;-1.97;92.86
52735;BME280;38631;47.572;10.704;2023-02-12T07:00:27;94262.84;;;-1.91;92.34
52735;BME280;38631;47.572;10.704;2023-02-12T07:02:54;94264.84;;;-1.93;91.22
52735;BME280;38631;47.572;10.704;2023-02-12T07:05:19;94259.75;;;-2.02;91.27
52735;BME280;38631;47.572;10.704;2023-02-12T07:07:45;94260.75;;;-2.03;92.20
52735;BME280;38631;47.572;10.704;2023-02-12T07:10:10;94261.44;;;-2.15;92.38
52735;BME280;38631;47.572;10.704;2023-02-12T07:12:35;94266.91;;;-2.25;93.05
52735;BME280;38631;47.572;10.704;2023-02-12T07:15:01;94264.09;;;-2.60;95.46
52735;BME280;38631;47.572;10.704;2023-02-12T07:17:29;94276.03;;;-2.14;94.58
52735;BME280;38631;47.572;10.704;2023-02-12T07:19:55;94284.28;;;-2.26;94.84
52735;BME280;38631;47.572;10.704;2023-02-12T07:22:20;94295.28;;;-2.45;95.75
52735;BME280;38631;47.572;10.704;2023-02-12T07:24:46;94306.03;;;-2.33;96.47
52735;BME280;38631;47.572;10.704;2023-02-12T07:27:12;94300.38;;;-2.22;96.64
52735;BME280;38631;47.572;10.704;2023-02-12T07:29:38;94309.16;;;-1.87;95.78
52735;BME280;38631;47.572;10.704;2023-02-12T07:32:04;94315.19;;;-1.65;92.84
52735;BME280;38631;47.572;10.704;2023-02-12T07:34:30;94320.78;;;-1.46;92.35
52735;BME280;38631;47.572;10.704;2023-02-12T07:36:55;94322.25;;;-1.80;94.78
52735;BME280;38631;47.572;10.704;2023-02-12T07:39:20;94317.72;;;-1.71;96.30
52735;BME280;38631;47.572;10.704;2023-02-12T07:41:46;94317.97;;;-1.66;96.05
52735;BME280;38631;47.572;10.704;2023-02-12T07:44:11;94316.44;;;-1.39;94.80
52735;BME280;38631;47.572;10.704;2023-02-12T07:49:05;94313.22;;;-0.92;91.23
52735;BME280;38631;47.572;10.704;2023-02-12T07:51:33;94300.69;;;-0.75;90.09
52735;BME280;38631;47.572;10.704;2023-02-12T07:53:59;94309.03;;;-0.86;90.44
52735;BME280;38631;47.572;10.704;2023-02-12T07:56:28;94296.91;;;-0.72;90.28
52735;BME280;38631;47.572;10.704;2023-02-12T07:58:55;94304.03;;;-0.81;89.62
52735;BME280;38631;47.572;10.704;2023-02-12T08:01:24;94301.94;;;-0.64;89.16
52735;BME280;38631;47.572;10.704;2023-02-12T08:03:51;94297.84;;;-0.45;89.62
52735;BME280;38631;47.572;10.704;2023-02-12T08:06:19;94303.72;;;-0.36;89.12
52735;BME280;38631;47.572;10.704;2023-02-12T08:08:46;94303.28;;;-0.40;88.25
52735;BME280;38631;47.572;10.704;2023-02-12T08:11:12;94309.28;;;-0.46;87.04
52735;BME280;38631;47.572;10.704;2023-02-12T08:13:39;94315.50;;;-0.47;85.36
52735;BME280;38631;47.572;10.704;2023-02-12T08:16:10;94305.88;;;-0.47;84.69
52735;BME280;38631;47.572;10.704;2023-02-12T08:18:35;94307.78;;;-0.20;83.55
52735;BME280;38631;47.572;10.704;2023-02-12T08:21:03;94301.19;;;-0.16;80.80
52735;BME280;38631;47.572;10.704;2023-02-12T08:23:29;94303.56;;;-0.22;80.60
52735;BME280;38631;47.572;10.704;2023-02-12T08:25:54;94308.78;;;-0.22;79.97
52735;BME280;38631;47.572;10.704;2023-02-12T08:28:19;94303.75;;;-0.23;79.66
52735;BME280;38631;47.572;10.704;2023-02-12T08:30:47;94301.34;;;-0.25;80.39
52735;BME280;38631;47.572;10.704;2023-02-12T08:33:12;94297.34;;;-0.27;79.67
52735;BME280;38631;47.572;10.704;2023-02-12T08:35:37;94299.94;;;-0.27;80.71
52735;BME280;38631;47.572;10.704;2023-02-12T08:38:03;94291.34;;;-0.14;80.43
52735;BME280;38631;47.572;10.704;2023-02-12T08:40:28;94287.94;;;-0.08;79.76
52735;BME280;38631;47.572;10.704;2023-02-12T08:42:55;94280.34;;;-0.10;80.26
52735;BME280;38631;47.572;10.704;2023-02-12T08:45:22;94279.78;;;0.08;80.86
52735;BME280;38631;47.572;10.704;2023-02-12T08:47:47;94282.84;;;0.25;81.21
52735;BME280;38631;47.572;10.704;2023-02-12T08:50:13;94273.72;;;0.01;80.34
52735;BME280;38631;47.572;10.704;2023-02-12T08:52:38;94268.09;;;0.04;80.98
52735;BME280;38631;47.572;10.704;2023-02-12T08:55:03;94264.53;;;0.18;80.40
52735;BME280;38631;47.572;10.704;2023-02-12T08:57:29;94265.53;;;0.24;80.18
52735;BME280;38631;47.572;10.704;2023-02-12T08:59:54;94267.19;;;0.52;79.48
52735;BME280;38631;47.572;10.704;2023-02-12T09:02:19;94264.00;;;0.56;79.80
52735;BME280;38631;47.572;10.704;2023-02-12T09:04:45;94261.78;;;0.67;78.78
52735;BME280;38631;47.572;10.704;2023-02-12T09:07:10;94269.03;;;0.78;77.09
52735;BME280;38631;47.572;10.704;2023-02-12T09:09:35;94265.59;;;0.71;77.13
52735;BME280;38631;47.572;10.704;2023-02-12T09:12:01;94275.88;;;0.66;76.95
52735;BME280;38631;47.572;10.704;2023-02-12T09:14:26;94265.59;;;0.64;77.91
52735;BME280;38631;47.572;10.704;2023-02-12T09:16:53;94269.78;;;1.32;75.88
52735;BME280;38631;47.572;10.704;2023-02-12T09:19:19;94265.91;;;1.54;75.00
52735;BME280;38631;47.572;10.704;2023-02-12T09:21:44;94260.72;;;1.41;74.87
52735;BME280;38631;47.572;10.704;2023-02-12T09:24:10;94260.28;;;1.50;75.19
52735;BME280;38631;47.572;10.704;2023-02-12T09:26:36;94257.31;;;1.27;72.55
52735;BME280;38631;47.572;10.704;2023-02-12T09:29:03;94259.53;;;1.10;72.59
52735;BME280;38631;47.572;10.704;2023-02-12T09:31:30;94254.06;;;1.25;73.09
52735;BME280;38631;47.572;10.704;2023-02-12T09:34:04;94255.19;;;1.69;70.84
52735;BME280;38631;47.572;10.704;2023-02-12T09:36:30;94242.25;;;1.74;69.96
52735;BME280;38631;47.572;10.704;2023-02-12T09:38:56;94246.59;;;1.42;72.18
52735;BME280;38631;47.572;10.704;2023-02-12T09:47:04;94250.44;;;1.33;70.62
52735;BME280;38631;47.572;10.704;2023-02-12T09:50:00;94249.41;;;1.40;75.08
52735;BME280;38631;47.572;10.704;2023-02-12T09:52:28;94246.22;;;1.38;74.06
52735;BME280;38631;47.572;10.704;2023-02-12T09:54:55;94238.75;;;1.35;74.83
52735;BME280;38631;47.572;10.704;2023-02-12T09:57:30;94244.13;;;1.60;76.18
52735;BME280;38631;47.572;10.704;2023-02-12T10:00:23;94255.47;;;1.41;73.14
52735;BME280;38631;47.572;10.704;2023-02-12T10:02:51;94254.22;;;1.50;71.14
52735;BME280;38631;47.572;10.704;2023-02-12T10:05:19;94257.66;;;1.50;72.16
52735;BME280;38631;47.572;10.704;2023-02-12T10:08:22;94251.84;;;1.35;73.19
52735;BME280;38631;47.572;10.704;2023-02-12T10:22:23;94257.25;;;1.54;77.72
52735;BME280;38631;47.572;10.704;2023-02-12T10:25:03;94258.06;;;1.47;78.23
52735;BME280;38631;47.572;10.704;2023-02-12T10:27:43;94256.69;;;1.90;76.58
52735;BME280;38631;47.572;10.704;2023-02-12T10:33:22;94254.59;;;2.05;75.30
52735;BME280;38631;47.572;10.704;2023-02-12T10:35:53;94253.59;;;2.06;74.61
52735;BME280;38631;47.572;10.704;2023-02-12T10:38:34;94253.06;;;2.29;73.15
52735;BME280;38631;47.572;10.704;2023-02-12T10:41:02;94251.34;;;2.10;72.33
52735;BME280;38631;47.572;10.704;2023-02-12T10:43:28;94252.84;;;1.99;72.82
52735;BME280;38631;47.572;10.704;2023-02-12T10:45:54;94250.84;;;1.88;73.05
52735;BME280;38631;47.572;10.704;2023-02-12T10:48:21;94246.03;;;1.91;73.13
52735;BME280;38631;47.572;10.704;2023-02-12T10:50:50;94244.34;;;2.35;71.30
52735;BME280;38631;47.572;10.704;2023-02-12T10:53:23;94248.50;;;2.18;72.94
52735;BME280;38631;47.572;10.704;2023-02-12T11:03:57;94244.19;;;2.62;71.97
52735;BME280;38631;47.572;10.704;2023-02-12T11:06:25;94237.56;;;2.85;71.00
52735;BME280;38631;47.572;10.704;2023-02-12T11:08:53;94238.31;;;2.67;71.15
52735;BME280;38631;47.572;10.704;2023-02-12T11:11:28;94232.09;;;2.61;71.30
52735;BME280;38631;47.572;10.704;2023-02-12T11:14:30;94230.78;;;2.45;71.07
52735;BME280;38631;47.572;10.704;2023-02-12T11:16:58;94226.56;;;3.56;67.37
52735;BME280;38631;47.572;10.704;2023-02-12T11:19:25;94221.88;;;3.58;68.56
52735;BME280;38631;47.572;10.704;2023-02-12T11:21:51;94219.41;;;3.27;67.35
52735;BME280;38631;47.572;10.704;2023-02-12T11:24:33;94218.88;;;3.18;64.74
52735;BME280;38631;47.572;10.704;2023-02-12T11:29:40;94215.78;;;2.84;65.82
52735;BME280;38631;47.572;10.704;2023-02-12T11:32:08;94216.22;;;2.81;66.11
52735;BME280;38631;47.572;10.704;2023-02-12T11:34:39;94210.59;;;2.96;65.14
52735;BME280;38631;47.572;10.704;2023-02-12T11:37:13;94213.13;;;3.09;65.61
52735;BME280;38631;47.572;10.704;2023-02-12T11:39:45;94216.50;;;3.35;65.58
52735;BME280;38631;47.572;10.704;2023-02-12T11:42:16;94211.69;;;3.32;66.05
52735;BME280;38631;47.572;10.704;2023-02-12T11:44:53;94203.66;;;3.45;66.27
52735;BME280;38631;47.572;10.704;2023-02-12T11:47:23;94202.03;;;3.62;65.04
52735;BME280;38631;47.572;10.704;2023-02-12T11:52:27;94189.94;;;3.61;66.76
52735;BME280;38631;47.572;10.704;2023-02-12T11:54:56;94192.72;;;3.66;68.22
52735;BME280;38631;47.572;10.704;2023-02-12T11:57:53;94197.88;;;3.73;68.03
52735;BME280;38631;47.572;10.704;2023-02-12T12:00:24;94192.88;;;3.83;66.98
52735;BME280;38631;47.572;10.704;2023-02-12T12:02:59;94201.00;;;3.63;68.29
52735;BME280;38631;47.572;10.704;2023-02-12T12:05:32;94194.31;;;3.67;69.09
52735;BME280;38631;47.572;10.704;2023-02-12T12:08:03;94195.00;;;3.93;70.04
52735;BME280;38631;47.572;10.704;2023-02-12T12:10:43;94191.09;;;3.84;70.61
52735;BME280;38631;47.572;10.704;2023-02-12T12:13:18;94192.22;;;4.06;68.82
52735;BME280;38631;47.572;10.704;2023-02-12T12:16:02;94188.13;;;4.22;68.53
52735;BME280;38631;47.572;10.704;2023-02-12T12:18:51;94192.19;;;4.37;67.89
52735;BME280;38631;47.572;10.704;2023-02-12T12:22:10;94187.84;;;4.42;67.09
52735;BME280;38631;47.572;10.704;2023-02-12T12:24:52;94187.47;;;4.27;67.66
52735;BME280;38631;47.572;10.704;2023-02-12T12:27:36;94194.34;;;4.40;67.03
52735;BME280;38631;47.572;10.704;2023-02-12T12:33:04;94185.09;;;4.37;67.44
52735;BME280;38631;47.572;10.704;2023-02-12T12:35:42;94191.28;;;4.43;68.19
52735;BME280;38631;47.572;10.704;2023-02-12T12:41:24;94185.25;;;4.54;66.66
52735;BME280;38631;47.572;10.704;2023-02-12T12:46:34;94181.41;;;4.38;66.64
52735;BME280;38631;47.572;10.704;2023-02-12T12:58:17;94169.22;;;4.55;65.98
52735;BME280;38631;47.572;10.704;2023-02-12T13:01:32;94166.72;;;4.61;65.35
52735;BME280;38631;47.572;10.704;2023-02-12T13:07:03;94162.03;;;4.74;65.97
52735;BME280;38631;47.572;10.704;2023-02-12T13:10:47;94158.94;;;4.66;65.55
52735;BME280;38631;47.572;10.704;2023-02-12T13:15:59;94151.03;;;4.66;66.00
52735;BME280;38631;47.572;10.704;2023-02-12T13:24:01;94139.28;;;4.80;66.20
52735;BME280;38631;47.572;10.704;2023-02-12T13:27:02;94151.53;;;4.74;66.32
52735;BME280;38631;47.572;10.704;2023-02-12T13:29:37;94140.97;;;4.86;66.87
52735;BME280;38631;47.572;10.704;2023-02-12T13:32:10;94150.59;;;4.81;66.76
52735;BME280;38631;47.572;10.704;2023-02-12T13:34:38;94147.94;;;4.69;66.53
52735;BME280;38631;47.572;10.704;2023-02-12T13:39:51;94139.59;;;4.95;67.12
52735;BME280;38631;47.572;10.704;2023-02-12T13:45:02;94132.66;;;4.89;66.98
52735;BME280;38631;47.572;10.704;2023-02-12T13:56:06;94136.28;;;4.88;66.61
52735;BME280;38631;47.572;10.704;2023-02-12T14:01:05;94132.97;;;5.05;66.37
52735;BME280;38631;47.572;10.704;2023-02-12T14:03:34;94136.75;;;4.97;66.72
52735;BME280;38631;47.572;10.704;2023-02-12T14:06:15;94131.25;;;5.10;66.98
52735;BME280;38631;47.572;10.704;2023-02-12T14:09:09;94135.69;;;5.22;67.22
52735;BME280;38631;47.572;10.704;2023-02-12T14:11:46;94137.41;;;5.16;67.78
52735;BME280;38631;47.572;10.704;2023-02-12T14:14:12;94136.72;;;5.09;68.13
52735;BME280;38631;47.572;10.704;2023-02-12T14:16:47;94129.50;;;5.28;68.40
52735;BME280;38631;47.572;10.704;2023-02-12T14:19:39;94137.19;;;5.06;69.46
52735;BME280;38631;47.572;10.704;2023-02-12T14:24:50;94128.81;;;5.32;68.58
52735;BME280;38631;47.572;10.704;2023-02-12T14:38:00;94116.63;;;5.43;69.48
52735;BME280;38631;47.572;10.704;2023-02-12T14:43:30;94121.31;;;5.41;69.63
52735;BME280;38631;47.572;10.704;2023-02-12T14:48:52;94125.22;;;5.38;70.23
52735;BME280;38631;47.572;10.704;2023-02-12T14:51:38;94125.28;;;5.27;71.25
52735;BME280;38631;47.572;10.704;2023-02-12T14:54:13;94122.69;;;5.44;70.94
52735;BME280;38631;47.572;10.704;2023-02-12T14:56:45;94119.03;;;5.45;71.08
52735;BME280;38631;47.572;10.704;2023-02-12T14:59:16;94112.34;;;5.54;70.86
52735;BME280;38631;47.572;10.704;2023-02-12T15:01:42;94112.84;;;5.39;71.82
52735;BME280;38631;47.572;10.704;2023-02-12T15:04:18;94118.38;;;5.26;72.59
52735;BME280;38631;47.572;10.704;2023-02-12T15:06:52;94107.28;;;5.24;72.82
52735;BME280;38631;47.572;10.704;2023-02-12T15:09:32;94115.06;;;5.18;73.81
52735;BME280;38631;47.572;10.704;2023-02-12T15:12:30;94112.66;;;5.29;73.65
52735;BME280;38631;47.572;10.704;2023-02-12T15:15:06;94112.63;;;5.40;73.27
52735;BME280;38631;47.572;10.704;2023-02-12T15:17:39;94121.03;;;5.26;74.38
52735;BME280;38631;47.572;10.704;2023-02-12T15:20:18;94115.16;;;5.35;75.05
52735;BME280;38631;47.572;10.704;2023-02-12T15:22:44;94111.06;;;5.28;75.10